Ocean Falls, Canada
Current Conditions -  °F | °C
As of 2:07 AM on Friday 19 Dec 2014 (Local Time) from CBBC Reporting Station
Light Rain Light Rain  
Wind Chill:   Ceiling: 2500
Heat Index:   Visibility: 9mi
Dew Point:   Wind: 13mph
Humidity: 100%   Direction: 150°SSE
Pressure: 29.52"   Gusts: 23mph
Location:  52.35°N, 127.7°W
Report Text: CBBC 191007Z AUTO 15011G20KT 9SM -RA SCT013 SCT019 BKN025 OVC033 06/06 A2952 RMK SLP996
Loading
Personal Weather Stations






























Interactive Weather Map New forecast layout! Learn more

10-Day Weather Forecast

Advertisements
Track Severe Weather on mobile